Calafate, Argentina
Current Conditions -  °F | °C
As of 1:00 PM on Thursday 18 Dec 2014 (Local Time) from SAWG Reporting Station
Scattered Clouds Scattered Clouds  
Wind Chill: 13°   Ceiling: Unl
Heat Index: 13°   Visibility: 6mi
Dew Point: -2°   Wind: 38mph
Humidity: 36%   Direction: 250°WSW
Pressure: 29"   Gusts: 55mph
Location:  50.33°S, 72.27°W
Report Text: SAWG 181600Z 25033G48KT 9999 SCT03013/M02 Q0982
Loading
Personal Weather Stations






























Interactive Weather Map New forecast layout! Learn more

10-Day Weather Forecast

Advertisements
Track Severe Weather on mobile